sensor_id;sensor_type;location;lat;lon;timestamp;pressure;altitude;pressure_sealevel;temperature;humidity
50852;BME280;43953;45.508;-122.806;2022-09-09T00:00:32;100861.06;;;30.23;20.52
50852;BME280;43953;45.508;-122.806;2022-09-09T00:01:14;100864.97;;;30.22;21.10
50852;BME280;43953;45.508;-122.806;2022-09-09T00:02:32;100859.78;;;30.21;22.71
50852;BME280;43953;45.508;-122.806;2022-09-09T00:03:43;100861.22;;;30.18;22.66
50852;BME280;43953;45.508;-122.806;2022-09-09T00:04:32;100862.84;;;30.19;22.19
50852;BME280;43953;45.508;-122.806;2022-09-09T00:06:24;100857.00;;;30.21;22.20
50852;BME280;43953;45.508;-122.806;2022-09-09T00:07:01;100851.75;;;30.19;21.64
50852;BME280;43953;45.508;-122.806;2022-09-09T00:07:43;100860.44;;;30.18;21.83
50852;BME280;43953;45.508;-122.806;2022-09-09T00:08:22;100859.13;;;30.15;21.94
50852;BME280;43953;45.508;-122.806;2022-09-09T00:09:26;100853.09;;;30.13;22.73
50852;BME280;43953;45.508;-122.806;2022-09-09T00:11:00;100854.25;;;30.12;22.37
50852;BME280;43953;45.508;-122.806;2022-09-09T00:11:54;100857.72;;;30.09;21.09
50852;BME280;43953;45.508;-122.806;2022-09-09T00:13:04;100856.41;;;30.06;21.30
50852;BME280;43953;45.508;-122.806;2022-09-09T00:13:43;100851.19;;;30.05;20.53
50852;BME280;43953;45.508;-122.806;2022-09-09T00:14:39;100854.19;;;30.00;20.51
50852;BME280;43953;45.508;-122.806;2022-09-09T00:15:37;100855.66;;;29.97;20.49
50852;BME280;43953;45.508;-122.806;2022-09-09T00:16:20;100858.31;;;29.93;21.60
50852;BME280;43953;45.508;-122.806;2022-09-09T00:17:01;100856.66;;;29.92;22.27
50852;BME280;43953;45.508;-122.806;2022-09-09T00:18:28;100851.13;;;29.92;22.82
50852;BME280;43953;45.508;-122.806;2022-09-09T00:20:01;100841.84;;;29.88;22.93
50852;BME280;43953;45.508;-122.806;2022-09-09T00:21:08;100854.91;;;29.88;23.63
50852;BME280;43953;45.508;-122.806;2022-09-09T00:22:30;100852.31;;;29.83;22.61
50852;BME280;43953;45.508;-122.806;2022-09-09T00:23:14;100849.88;;;29.81;22.21
50852;BME280;43953;45.508;-122.806;2022-09-09T00:23:53;100846.63;;;29.79;21.29
50852;BME280;43953;45.508;-122.806;2022-09-09T00:24:32;100849.72;;;29.78;22.34
50852;BME280;43953;45.508;-122.806;2022-09-09T00:25:16;100845.66;;;29.75;22.84
50852;BME280;43953;45.508;-122.806;2022-09-09T00:26:52;100848.66;;;29.70;22.34
50852;BME280;43953;45.508;-122.806;2022-09-09T00:27:37;100848.97;;;29.68;21.25
50852;BME280;43953;45.508;-122.806;2022-09-09T00:29:57;100850.16;;;29.59;21.81
50852;BME280;43953;45.508;-122.806;2022-09-09T00:30:35;100856.00;;;29.57;22.61
50852;BME280;43953;45.508;-122.806;2022-09-09T00:31:15;100857.66;;;29.58;22.62
50852;BME280;43953;45.508;-122.806;2022-09-09T00:31:51;100841.34;;;29.57;21.52
50852;BME280;43953;45.508;-122.806;2022-09-09T00:32:29;100854.72;;;29.55;22.13
50852;BME280;43953;45.508;-122.806;2022-09-09T00:33:11;100847.91;;;29.52;22.22
50852;BME280;43953;45.508;-122.806;2022-09-09T00:33:46;100855.38;;;29.52;22.35
50852;BME280;43953;45.508;-122.806;2022-09-09T00:34:23;100855.75;;;29.50;22.76
50852;BME280;43953;45.508;-122.806;2022-09-09T00:35:00;100850.50;;;29.48;23.13
50852;BME280;43953;45.508;-122.806;2022-09-09T00:35:37;100849.69;;;29.48;23.38
50852;BME280;43953;45.508;-122.806;2022-09-09T00:36:18;100854.75;;;29.46;23.39
50852;BME280;43953;45.508;-122.806;2022-09-09T00:36:55;100845.97;;;29.44;23.51
50852;BME280;43953;45.508;-122.806;2022-09-09T00:37:28;100850.22;;;29.41;23.58
50852;BME280;43953;45.508;-122.806;2022-09-09T00:38:12;100846.97;;;29.39;23.67
50852;BME280;43953;45.508;-122.806;2022-09-09T00:38:48;100848.44;;;29.37;23.73
50852;BME280;43953;45.508;-122.806;2022-09-09T00:39:41;100845.03;;;29.31;23.75
50852;BME280;43953;45.508;-122.806;2022-09-09T00:40:36;100842.13;;;29.28;21.92
50852;BME280;43953;45.508;-122.806;2022-09-09T00:41:19;100851.59;;;29.27;21.77
50852;BME280;43953;45.508;-122.806;2022-09-09T00:42:45;100842.63;;;29.21;22.91
50852;BME280;43953;45.508;-122.806;2022-09-09T00:43:29;100852.13;;;29.20;23.73
50852;BME280;43953;45.508;-122.806;2022-09-09T00:44:31;100848.03;;;29.17;23.59
50852;BME280;43953;45.508;-122.806;2022-09-09T00:45:35;100847.56;;;29.15;22.81
50852;BME280;43953;45.508;-122.806;2022-09-09T00:47:17;100844.13;;;29.10;23.88
50852;BME280;43953;45.508;-122.806;2022-09-09T00:47:52;100843.81;;;29.11;23.86
50852;BME280;43953;45.508;-122.806;2022-09-09T00:48:44;100844.94;;;29.10;24.01
50852;BME280;43953;45.508;-122.806;2022-09-09T00:49:28;100836.97;;;29.09;23.60
50852;BME280;43953;45.508;-122.806;2022-09-09T00:51:01;100837.16;;;29.03;23.43
50852;BME280;43953;45.508;-122.806;2022-09-09T00:56:20;100834.22;;;28.91;23.00
50852;BME280;43953;45.508;-122.806;2022-09-09T00:56:41;100833.09;;;28.84;23.23
50852;BME280;43953;45.508;-122.806;2022-09-09T00:57:33;100835.22;;;28.78;23.54
50852;BME280;43953;45.508;-122.806;2022-09-09T00:58:07;100828.41;;;28.75;23.78
50852;BME280;43953;45.508;-122.806;2022-09-09T00:58:46;100829.38;;;28.71;23.39
50852;BME280;43953;45.508;-122.806;2022-09-09T01:00:22;100834.44;;;28.60;23.58
50852;BME280;43953;45.508;-122.806;2022-09-09T01:01:13;100835.75;;;28.54;23.79
50852;BME280;43953;45.508;-122.806;2022-09-09T01:01:44;100829.25;;;28.50;23.44
50852;BME280;43953;45.508;-122.806;2022-09-09T01:02:26;100828.44;;;28.49;23.77
50852;BME280;43953;45.508;-122.806;2022-09-09T01:04:12;100820.28;;;28.44;23.96
50852;BME280;43953;45.508;-122.806;2022-09-09T01:04:47;100824.19;;;28.43;23.87
50852;BME280;43953;45.508;-122.806;2022-09-09T01:06:33;100818.28;;;28.36;23.95
50852;BME280;43953;45.508;-122.806;2022-09-09T01:07:16;100822.88;;;28.32;24.48
50852;BME280;43953;45.508;-122.806;2022-09-09T01:07:49;100820.41;;;28.30;24.06
50852;BME280;43953;45.508;-122.806;2022-09-09T01:09:52;100813.75;;;28.23;24.97
50852;BME280;43953;45.508;-122.806;2022-09-09T01:10:47;100818.78;;;28.21;25.76
50852;BME280;43953;45.508;-122.806;2022-09-09T01:11:26;100808.06;;;28.19;25.37
50852;BME280;43953;45.508;-122.806;2022-09-09T01:12:41;100812.75;;;28.19;24.92
50852;BME280;43953;45.508;-122.806;2022-09-09T01:13:26;100807.22;;;28.19;24.71
50852;BME280;43953;45.508;-122.806;2022-09-09T01:14:19;100804.44;;;28.19;24.57
50852;BME280;43953;45.508;-122.806;2022-09-09T01:15:12;100814.41;;;28.20;24.56
50852;BME280;43953;45.508;-122.806;2022-09-09T01:15:46;100813.59;;;28.19;24.69
50852;BME280;43953;45.508;-122.806;2022-09-09T01:16:18;100814.41;;;28.20;24.35
50852;BME280;43953;45.508;-122.806;2022-09-09T01:16:52;100818.28;;;28.19;24.44
50852;BME280;43953;45.508;-122.806;2022-09-09T01:18:17;100815.06;;;28.17;24.51
50852;BME280;43953;45.508;-122.806;2022-09-09T01:18:53;100813.41;;;28.16;24.37
50852;BME280;43953;45.508;-122.806;2022-09-09T01:19:37;100817.81;;;28.17;24.57
50852;BME280;43953;45.508;-122.806;2022-09-09T01:20:24;100812.59;;;28.15;24.52
50852;BME280;43953;45.508;-122.806;2022-09-09T01:21:19;100808.53;;;28.12;24.36
50852;BME280;43953;45.508;-122.806;2022-09-09T01:24:42;100806.59;;;28.04;24.26
50852;BME280;43953;45.508;-122.806;2022-09-09T01:26:19;100802.81;;;28.00;24.49
50852;BME280;43953;45.508;-122.806;2022-09-09T01:27:03;100811.13;;;28.00;24.41
50852;BME280;43953;45.508;-122.806;2022-09-09T01:27:37;100813.09;;;28.00;24.60
50852;BME280;43953;45.508;-122.806;2022-09-09T01:28:16;100809.50;;;27.99;24.60
50852;BME280;43953;45.508;-122.806;2022-09-09T01:28:50;100806.25;;;27.97;24.42
50852;BME280;43953;45.508;-122.806;2022-09-09T01:29:24;100808.50;;;27.95;24.59
50852;BME280;43953;45.508;-122.806;2022-09-09T01:29:56;100807.69;;;27.95;24.70
50852;BME280;43953;45.508;-122.806;2022-09-09T01:30:31;100803.63;;;27.92;24.40
50852;BME280;43953;45.508;-122.806;2022-09-09T01:31:06;100800.69;;;27.88;24.34
50852;BME280;43953;45.508;-122.806;2022-09-09T01:32:43;100807.53;;;27.82;24.64
50852;BME280;43953;45.508;-122.806;2022-09-09T01:33:17;100807.84;;;27.81;24.66
50852;BME280;43953;45.508;-122.806;2022-09-09T01:33:49;100810.13;;;27.79;24.31
50852;BME280;43953;45.508;-122.806;2022-09-09T01:34:23;100801.28;;;27.77;24.97
50852;BME280;43953;45.508;-122.806;2022-09-09T01:34:55;100801.94;;;27.74;24.79
50852;BME280;43953;45.508;-122.806;2022-09-09T01:36:06;100801.47;;;27.72;24.62
50852;BME280;43953;45.508;-122.806;2022-09-09T01:37:33;100796.88;;;27.67;24.51
50852;BME280;43953;45.508;-122.806;2022-09-09T01:38:04;100798.84;;;27.66;24.71
50852;BME280;43953;45.508;-122.806;2022-09-09T01:38:37;100792.81;;;27.64;24.54
50852;BME280;43953;45.508;-122.806;2022-09-09T01:39:09;100793.97;;;27.63;24.63
50852;BME280;43953;45.508;-122.806;2022-09-09T01:39:43;100795.41;;;27.61;24.75
50852;BME280;43953;45.508;-122.806;2022-09-09T01:40:16;100794.91;;;27.59;24.61
50852;BME280;43953;45.508;-122.806;2022-09-09T01:40:48;100796.88;;;27.58;24.74
50852;BME280;43953;45.508;-122.806;2022-09-09T01:41:20;100791.69;;;27.57;24.64
50852;BME280;43953;45.508;-122.806;2022-09-09T01:41:53;100790.84;;;27.56;24.42
50852;BME280;43953;45.508;-122.806;2022-09-09T01:42:26;100794.25;;;27.53;24.75
50852;BME280;43953;45.508;-122.806;2022-09-09T01:42:58;100792.63;;;27.52;24.48
50852;BME280;43953;45.508;-122.806;2022-09-09T01:43:30;100791.00;;;27.51;24.69
50852;BME280;43953;45.508;-122.806;2022-09-09T01:44:02;100793.78;;;27.51;24.98
50852;BME280;43953;45.508;-122.806;2022-09-09T01:44:36;100790.50;;;27.49;24.83
50852;BME280;43953;45.508;-122.806;2022-09-09T01:45:08;100792.75;;;27.47;24.63
50852;BME280;43953;45.508;-122.806;2022-09-09T01:45:41;100791.78;;;27.43;24.60
50852;BME280;43953;45.508;-122.806;2022-09-09T01:46:14;100784.13;;;27.40;24.81
50852;BME280;43953;45.508;-122.806;2022-09-09T01:46:47;100789.97;;;27.38;24.71
50852;BME280;43953;45.508;-122.806;2022-09-09T01:47:19;100788.66;;;27.36;24.65
50852;BME280;43953;45.508;-122.806;2022-09-09T01:47:52;100790.31;;;27.37;24.95
50852;BME280;43953;45.508;-122.806;2022-09-09T01:48:25;100792.56;;;27.35;24.63
50852;BME280;43953;45.508;-122.806;2022-09-09T01:48:57;100785.41;;;27.34;24.95
50852;BME280;43953;45.508;-122.806;2022-09-09T01:49:31;100790.94;;;27.34;24.77
50852;BME280;43953;45.508;-122.806;2022-09-09T01:50:04;100789.63;;;27.31;24.82
50852;BME280;43953;45.508;-122.806;2022-09-09T01:50:36;100788.03;;;27.30;24.89
50852;BME280;43953;45.508;-122.806;2022-09-09T01:51:08;100789.94;;;27.30;24.76
50852;BME280;43953;45.508;-122.806;2022-09-09T01:51:42;100790.28;;;27.28;24.69
50852;BME280;43953;45.508;-122.806;2022-09-09T01:52:14;100785.06;;;27.27;24.88
50852;BME280;43953;45.508;-122.806;2022-09-09T01:52:49;100783.09;;;27.27;24.64
50852;BME280;43953;45.508;-122.806;2022-09-09T01:53:22;100790.09;;;27.25;24.61
50852;BME280;43953;45.508;-122.806;2022-09-09T01:53:54;100786.50;;;27.24;24.75
50852;BME280;43953;45.508;-122.806;2022-09-09T01:54:29;100784.06;;;27.22;25.07
50852;BME280;43953;45.508;-122.806;2022-09-09T01:55:04;100788.28;;;27.20;24.69
50852;BME280;43953;45.508;-122.806;2022-09-09T01:55:39;100777.88;;;27.17;25.11
50852;BME280;43953;45.508;-122.806;2022-09-09T02:00:06;100781.53;;;27.04;24.88
50852;BME280;43953;45.508;-122.806;2022-09-09T02:00:48;100774.69;;;27.01;25.27
50852;BME280;43953;45.508;-122.806;2022-09-09T02:03:07;100783.75;;;26.93;25.39
50852;BME280;43953;45.508;-122.806;2022-09-09T02:03:41;100778.53;;;26.91;25.06
50852;BME280;43953;45.508;-122.806;2022-09-09T02:06:36;100785.03;;;26.87;25.34
50852;BME280;43953;45.508;-122.806;2022-09-09T02:07:35;100786.47;;;26.84;25.59
50852;BME280;43953;45.508;-122.806;2022-09-09T02:08:11;100776.56;;;26.83;25.11
50852;BME280;43953;45.508;-122.806;2022-09-09T02:08:52;100784.00;;;26.83;25.30
50852;BME280;43953;45.508;-122.806;2022-09-09T02:09:25;100784.34;;;26.81;25.48
50852;BME280;43953;45.508;-122.806;2022-09-09T02:10:53;100779.75;;;26.76;25.69
50852;BME280;43953;45.508;-122.806;2022-09-09T02:11:28;100779.28;;;26.74;25.10
50852;BME280;43953;45.508;-122.806;2022-09-09T02:12:12;100773.06;;;26.69;25.38
50852;BME280;43953;45.508;-122.806;2022-09-09T02:12:48;100784.94;;;26.69;25.23
50852;BME280;43953;45.508;-122.806;2022-09-09T02:13:23;100774.19;;;26.68;25.55
50852;BME280;43953;45.508;-122.806;2022-09-09T02:13:59;100772.88;;;26.65;25.58
50852;BME280;43953;45.508;-122.806;2022-09-09T02:14:37;100770.44;;;26.64;25.53
50852;BME280;43953;45.508;-122.806;2022-09-09T02:15:50;100774.16;;;26.59;25.42
50852;BME280;43953;45.508;-122.806;2022-09-09T02:16:45;100775.38;;;26.53;25.85
50852;BME280;43953;45.508;-122.806;2022-09-09T02:17:28;100777.66;;;26.51;25.80
50852;BME280;43953;45.508;-122.806;2022-09-09T02:18:01;100775.19;;;26.49;25.89
50852;BME280;43953;45.508;-122.806;2022-09-09T02:19:37;100767.22;;;26.48;25.86
50852;BME280;43953;45.508;-122.806;2022-09-09T02:20:13;100763.94;;;26.46;25.92
50852;BME280;43953;45.508;-122.806;2022-09-09T02:20:46;100770.28;;;26.46;25.83
50852;BME280;43953;45.508;-122.806;2022-09-09T02:21:18;100772.06;;;26.42;26.04
50852;BME280;43953;45.508;-122.806;2022-09-09T02:21:52;100777.88;;;26.41;25.79
50852;BME280;43953;45.508;-122.806;2022-09-09T02:22:26;100774.63;;;26.39;25.58
50852;BME280;43953;45.508;-122.806;2022-09-09T02:23:01;100780.16;;;26.39;25.84
50852;BME280;43953;45.508;-122.806;2022-09-09T02:23:34;100770.56;;;26.36;25.96
50852;BME280;43953;45.508;-122.806;2022-09-09T02:24:08;100770.84;;;26.35;25.70
50852;BME280;43953;45.508;-122.806;2022-09-09T02:24:42;100774.25;;;26.31;25.87
50852;BME280;43953;45.508;-122.806;2022-09-09T02:25:16;100778.44;;;26.29;26.10
50852;BME280;43953;45.508;-122.806;2022-09-09T02:25:50;100778.25;;;26.25;26.10
50852;BME280;43953;45.508;-122.806;2022-09-09T02:26:24;100773.88;;;26.24;26.10
50852;BME280;43953;45.508;-122.806;2022-09-09T02:26:57;100774.97;;;26.23;26.07
50852;BME280;43953;45.508;-122.806;2022-09-09T02:27:30;100773.34;;;26.22;26.22
50852;BME280;43953;45.508;-122.806;2022-09-09T02:28:03;100773.69;;;26.21;26.04
50852;BME280;43953;45.508;-122.806;2022-09-09T02:28:38;100778.69;;;26.19;25.91
50852;BME280;43953;45.508;-122.806;2022-09-09T02:29:18;100771.84;;;26.16;26.24
50852;BME280;43953;45.508;-122.806;2022-09-09T02:29:52;100768.28;;;26.16;26.14
50852;BME280;43953;45.508;-122.806;2022-09-09T02:30:27;100767.47;;;26.15;26.00
50852;BME280;43953;45.508;-122.806;2022-09-09T02:31:01;100774.63;;;26.16;26.17
50852;BME280;43953;45.508;-122.806;2022-09-09T02:31:34;100774.63;;;26.16;26.43
50852;BME280;43953;45.508;-122.806;2022-09-09T02:32:11;100771.34;;;26.14;26.29
50852;BME280;43953;45.508;-122.806;2022-09-09T02:32:47;100773.28;;;26.14;26.57
50852;BME280;43953;45.508;-122.806;2022-09-09T02:33:24;100772.78;;;26.12;26.50
50852;BME280;43953;45.508;-122.806;2022-09-09T02:34:00;100772.59;;;26.08;26.24
50852;BME280;43953;45.508;-122.806;2022-09-09T02:34:37;100773.72;;;26.07;26.73
50852;BME280;43953;45.508;-122.806;2022-09-09T02:35:15;100767.41;;;26.06;26.08
50852;BME280;43953;45.508;-122.806;2022-09-09T02:35:47;100771.25;;;26.05;26.27
50852;BME280;43953;45.508;-122.806;2022-09-09T02:36:22;100768.03;;;26.03;26.40
50852;BME280;43953;45.508;-122.806;2022-09-09T02:36:56;100771.06;;;26.02;26.63
50852;BME280;43953;45.508;-122.806;2022-09-09T02:37:32;100771.41;;;26.00;26.53
50852;BME280;43953;45.508;-122.806;2022-09-09T02:38:09;100767.81;;;26.00;26.40
50852;BME280;43953;45.508;-122.806;2022-09-09T02:38:46;100770.91;;;25.98;26.54
50852;BME280;43953;45.508;-122.806;2022-09-09T02:39:56;100773.13;;;25.96;26.68
50852;BME280;43953;45.508;-122.806;2022-09-09T02:40:28;100774.28;;;25.95;26.43
50852;BME280;43953;45.508;-122.806;2022-09-09T02:41:00;100765.00;;;25.91;26.41
50852;BME280;43953;45.508;-122.806;2022-09-09T02:41:34;100766.44;;;25.89;26.84
50852;BME280;43953;45.508;-122.806;2022-09-09T02:42:06;100774.72;;;25.89;26.62
50852;BME280;43953;45.508;-122.806;2022-09-09T02:42:43;100771.72;;;25.85;26.78
50852;BME280;43953;45.508;-122.806;2022-09-09T02:43:15;100768.50;;;25.83;26.49
50852;BME280;43953;45.508;-122.806;2022-09-09T02:43:47;100765.19;;;25.81;26.45
50852;BME280;43953;45.508;-122.806;2022-09-09T02:44:19;100767.75;;;25.77;26.74
50852;BME280;43953;45.508;-122.806;2022-09-09T02:44:51;100772.56;;;25.72;26.85
50852;BME280;43953;45.508;-122.806;2022-09-09T02:45:29;100771.75;;;25.71;26.72
50852;BME280;43953;45.508;-122.806;2022-09-09T02:48:35;100771.47;;;25.59;26.95
50852;BME280;43953;45.508;-122.806;2022-09-09T02:49:32;100773.72;;;25.57;26.92
50852;BME280;43953;45.508;-122.806;2022-09-09T02:51:18;100764.44;;;25.53;26.93
50852;BME280;43953;45.508;-122.806;2022-09-09T02:52:05;100769.94;;;25.53;27.24
50852;BME280;43953;45.508;-122.806;2022-09-09T02:53:47;100766.97;;;25.49;26.91
50852;BME280;43953;45.508;-122.806;2022-09-09T02:54:29;100762.59;;;25.48;27.06
50852;BME280;43953;45.508;-122.806;2022-09-09T02:55:19;100763.22;;;25.45;27.33
50852;BME280;43953;45.508;-122.806;2022-09-09T02:56:04;100763.00;;;25.41;27.33
50852;BME280;43953;45.508;-122.806;2022-09-09T02:56:42;100764.97;;;25.41;27.47
50852;BME280;43953;45.508;-122.806;2022-09-09T02:57:22;100759.22;;;25.37;27.37
50852;BME280;43953;45.508;-122.806;2022-09-09T02:57:55;100754.84;;;25.36;27.38
50852;BME280;43953;45.508;-122.806;2022-09-09T02:58:28;100757.88;;;25.35;27.47
50852;BME280;43953;45.508;-122.806;2022-09-09T02:59:03;100757.06;;;25.34;27.20
50852;BME280;43953;45.508;-122.806;2022-09-09T02:59:36;100759.34;;;25.32;27.20
50852;BME280;43953;45.508;-122.806;2022-09-09T03:00:08;100757.69;;;25.31;27.14
50852;BME280;43953;45.508;-122.806;2022-09-09T03:00:41;100761.59;;;25.30;26.98
50852;BME280;43953;45.508;-122.806;2022-09-09T03:01:12;100765.47;;;25.29;27.26
50852;BME280;43953;45.508;-122.806;2022-09-09T03:01:45;100758.00;;;25.30;27.35
50852;BME280;43953;45.508;-122.806;2022-09-09T03:02:17;100753.13;;;25.27;27.16
50852;BME280;43953;45.508;-122.806;2022-09-09T03:02:50;100758.91;;;25.25;27.27
50852;BME280;43953;45.508;-122.806;2022-09-09T03:03:22;100753.22;;;25.22;26.99
50852;BME280;43953;45.508;-122.806;2022-09-09T03:03:54;100755.97;;;25.22;27.25
50852;BME280;43953;45.508;-122.806;2022-09-09T03:04:26;100757.91;;;25.21;27.58
50852;BME280;43953;45.508;-122.806;2022-09-09T03:04:58;100749.13;;;25.19;27.55
50852;BME280;43953;45.508;-122.806;2022-09-09T03:05:29;100748.59;;;25.17;27.44
50852;BME280;43953;45.508;-122.806;2022-09-09T03:06:01;100754.97;;;25.17;27.29
50852;BME280;43953;45.508;-122.806;2022-09-09T03:06:33;100756.38;;;25.15;27.28
50852;BME280;43953;45.508;-122.806;2022-09-09T03:07:05;100757.47;;;25.14;27.50
50852;BME280;43953;45.508;-122.806;2022-09-09T03:07:37;100749.81;;;25.11;27.34
50852;BME280;43953;45.508;-122.806;2022-09-09T03:08:09;100751.75;;;25.10;27.30
50852;BME280;43953;45.508;-122.806;2022-09-09T03:08:41;100755.63;;;25.09;27.48
50852;BME280;43953;45.508;-122.806;2022-09-09T03:09:13;100761.44;;;25.08;27.22
50852;BME280;43953;45.508;-122.806;2022-09-09T03:09:45;100757.06;;;25.07;27.35
50852;BME280;43953;45.508;-122.806;2022-09-09T03:10:17;100763.19;;;25.04;27.49
50852;BME280;43953;45.508;-122.806;2022-09-09T03:10:49;100760.72;;;25.02;27.66
50852;BME280;43953;45.508;-122.806;2022-09-09T03:11:20;100756.03;;;25.03;27.37
50852;BME280;43953;45.508;-122.806;2022-09-09T03:11:52;100760.72;;;25.02;27.33
50852;BME280;43953;45.508;-122.806;2022-09-09T03:12:26;100757.47;;;25.00;27.16
50852;BME280;43953;45.508;-122.806;2022-09-09T03:12:57;100758.88;;;24.97;27.33
50852;BME280;43953;45.508;-122.806;2022-09-09T03:13:29;100762.78;;;24.96;27.48
50852;BME280;43953;45.508;-122.806;2022-09-09T03:14:02;100757.56;;;24.95;27.61
50852;BME280;43953;45.508;-122.806;2022-09-09T03:14:33;100757.03;;;24.93;27.43
50852;BME280;43953;45.508;-122.806;2022-09-09T03:15:06;100756.53;;;24.91;27.56
50852;BME280;43953;45.508;-122.806;2022-09-09T03:15:38;100765.09;;;24.89;27.41
50852;BME280;43953;45.508;-122.806;2022-09-09T03:16:10;100762.34;;;24.89;27.73
50852;BME280;43953;45.508;-122.806;2022-09-09T03:16:42;100758.25;;;24.87;27.78
50852;BME280;43953;45.508;-122.806;2022-09-09T03:17:14;100761.00;;;24.87;27.71
50852;BME280;43953;45.508;-122.806;2022-09-09T03:17:45;100763.75;;;24.87;27.71
50852;BME280;43953;45.508;-122.806;2022-09-09T03:18:18;100762.44;;;24.84;27.45
50852;BME280;43953;45.508;-122.806;2022-09-09T03:18:49;100761.94;;;24.82;27.44
50852;BME280;43953;45.508;-122.806;2022-09-09T03:19:21;100761.41;;;24.80;27.44
50852;BME280;43953;45.508;-122.806;2022-09-09T03:19:53;100764.16;;;24.80;27.42
50852;BME280;43953;45.508;-122.806;2022-09-09T03:20:28;100768.03;;;24.79;27.51
50852;BME280;43953;45.508;-122.806;2022-09-09T03:21:00;100766.41;;;24.78;27.66
50852;BME280;43953;45.508;-122.806;2022-09-09T03:21:32;100754.03;;;24.75;27.40
50852;BME280;43953;45.508;-122.806;2022-09-09T03:22:04;100761.50;;;24.75;27.56
50852;BME280;43953;45.508;-122.806;2022-09-09T03:22:36;100763.75;;;24.73;27.70
50852;BME280;43953;45.508;-122.806;2022-09-09T03:23:07;100767.59;;;24.72;27.67
50852;BME280;43953;45.508;-122.806;2022-09-09T03:23:40;100771.50;;;24.71;27.70
50852;BME280;43953;45.508;-122.806;2022-09-09T03:24:13;100770.69;;;24.70;27.59
50852;BME280;43953;45.508;-122.806;2022-09-09T03:24:45;100770.16;;;24.68;27.67
50852;BME280;43953;45.508;-122.806;2022-09-09T03:25:18;100763.03;;;24.67;27.65
50852;BME280;43953;45.508;-122.806;2022-09-09T03:25:50;100768.81;;;24.66;27.70
50852;BME280;43953;45.508;-122.806;2022-09-09T03:26:23;100762.78;;;24.64;27.59
50852;BME280;43953;45.508;-122.806;2022-09-09T03:26:54;100768.28;;;24.64;27.70
50852;BME280;43953;45.508;-122.806;2022-09-09T03:27:26;100763.91;;;24.63;27.72
50852;BME280;43953;45.508;-122.806;2022-09-09T03:27:58;100776.88;;;24.62;27.64
50852;BME280;43953;45.508;-122.806;2022-09-09T03:28:30;100763.09;;;24.62;27.95
50852;BME280;43953;45.508;-122.806;2022-09-09T03:29:02;100767.81;;;24.62;27.80
50852;BME280;43953;45.508;-122.806;2022-09-09T03:29:34;100765.53;;;24.64;28.10
50852;BME280;43953;45.508;-122.806;2022-09-09T03:30:06;100765.53;;;24.64;28.22
50852;BME280;43953;45.508;-122.806;2022-09-09T03:30:38;100778.22;;;24.65;28.16
50852;BME280;43953;45.508;-122.806;2022-09-09T03:31:10;100776.56;;;24.64;28.11
50852;BME280;43953;45.508;-122.806;2022-09-09T03:31:42;100771.03;;;24.64;28.18
50852;BME280;43953;45.508;-122.806;2022-09-09T03:32:14;100771.03;;;24.64;28.17
50852;BME280;43953;45.508;-122.806;2022-09-09T03:32:46;100777.41;;;24.64;28.04
50852;BME280;43953;45.508;-122.806;2022-09-09T03:33:19;100768.28;;;24.64;28.25
50852;BME280;43953;45.508;-122.806;2022-09-09T03:33:50;100767.19;;;24.65;28.34
50852;BME280;43953;45.508;-122.806;2022-09-09T03:34:22;100774.31;;;24.66;28.04
50852;BME280;43953;45.508;-122.806;2022-09-09T03:34:54;100771.56;;;24.66;28.17
50852;BME280;43953;45.508;-122.806;2022-09-09T03:35:26;100768.81;;;24.66;28.29
50852;BME280;43953;45.508;-122.806;2022-09-09T03:35:57;100770.75;;;24.65;28.56
50852;BME280;43953;45.508;-122.806;2022-09-09T03:36:29;100766.88;;;24.66;28.23
50852;BME280;43953;45.508;-122.806;2022-09-09T03:37:01;100770.97;;;24.69;28.49
50852;BME280;43953;45.508;-122.806;2022-09-09T03:37:33;100768.22;;;24.69;27.94
50852;BME280;43953;45.508;-122.806;2022-09-09T03:38:05;100772.09;;;24.68;27.87
50852;BME280;43953;45.508;-122.806;2022-09-09T03:38:37;100775.97;;;24.67;28.14
50852;BME280;43953;45.508;-122.806;2022-09-09T03:39:08;100771.28;;;24.67;27.99
50852;BME280;43953;45.508;-122.806;2022-09-09T03:39:40;100780.34;;;24.68;27.95
50852;BME280;43953;45.508;-122.806;2022-09-09T03:40:12;100777.59;;;24.68;28.13
50852;BME280;43953;45.508;-122.806;2022-09-09T03:40:54;100774.66;;;24.64;28.00
50852;BME280;43953;45.508;-122.806;2022-09-09T03:41:26;100776.56;;;24.64;28.59
50852;BME280;43953;45.508;-122.806;2022-09-09T03:41:58;100774.94;;;24.63;28.29
50852;BME280;43953;45.508;-122.806;2022-09-09T03:42:30;100780.44;;;24.63;28.30
50852;BME280;43953;45.508;-122.806;2022-09-09T03:43:02;100773.81;;;24.64;28.35
50852;BME280;43953;45.508;-122.806;2022-09-09T03:43:34;100776.56;;;24.64;28.29
50852;BME280;43953;45.508;-122.806;2022-09-09T03:44:06;100781.25;;;24.63;28.21
50852;BME280;43953;45.508;-122.806;2022-09-09T03:44:37;100774.13;;;24.62;28.22
50852;BME280;43953;45.508;-122.806;2022-09-09T03:45:09;100779.91;;;24.61;28.04
50852;BME280;43953;45.508;-122.806;2022-09-09T03:45:45;100770.03;;;24.60;28.41
50852;BME280;43953;45.508;-122.806;2022-09-09T03:46:19;100782.16;;;24.59;28.31
50852;BME280;43953;45.508;-122.806;2022-09-09T03:46:51;100776.34;;;24.60;28.57
50852;BME280;43953;45.508;-122.806;2022-09-09T03:47:22;100782.16;;;24.59;28.76